Time;durP1;ratioP1;P1;durP2;ratioP2;P2;SDS_P1;SDS_P2;PMS_P1;PMS_P2;Temp;Humidity;BMP_temperature;BMP_pressure;BME280_temperature;BME280_humidity;BME280_pressure;Samples;Min_cycle;Max_cycle;Signal;HPM_P1;HPM_P2
2022/09/07 00:01:39;;;;;;;3.38;2.30;;;18.10;99.90;;;;;;6026786;23;20013;-84
2022/09/07 00:04:11;;;;;;;2.70;2.03;;;18.00;99.90;;;;;;6029407;23;20346;-84
2022/09/07 00:06:43;;;;;;;5.47;2.58;;;17.90;99.90;;;;;;6029230;23;20010;-83
2022/09/07 00:09:29;;;;;;;3.13;2.10;;;17.80;99.90;;;;;;6051653;23;20011;-82
2022/09/07 00:12:06;;;;;;;4.97;2.97;;;17.80;99.90;;;;;;6030078;23;20014;-83
2022/09/07 00:14:53;;;;;;;4.18;2.58;;;17.80;99.90;;;;;;6007776;23;20021;-83
2022/09/07 00:17:48;;;;;;;5.18;3.08;;;17.80;99.90;;;;;;6089461;23;20029;-83
2022/09/07 00:20:15;;;;;;;5.00;2.95;;;17.80;99.90;;;;;;6055171;23;20021;-84
2022/09/07 00:22:41;;;;;;;4.80;2.28;;;17.80;99.90;;;;;;6053353;23;20007;-84
2022/09/07 00:25:10;;;;;;;3.30;2.08;;;17.80;99.90;;;;;;6027965;23;20003;-84
2022/09/07 00:27:48;;;;;;;5.03;2.37;;;17.80;99.90;;;;;;6075357;23;20025;-84
2022/09/07 00:30:21;;;;;;;4.15;1.92;;;17.80;99.90;;;;;;6030115;23;20003;-83
2022/09/07 00:32:48;;;;;;;3.85;2.17;;;17.80;99.90;;;;;;6004165;23;20003;-84
2022/09/07 00:35:17;;;;;;;4.13;2.13;;;17.80;99.90;;;;;;6052492;23;20003;-84
2022/09/07 00:37:43;;;;;;;3.03;1.77;;;17.70;99.90;;;;;;6050431;23;20017;-85
2022/09/07 00:40:09;;;;;;;5.50;1.95;;;17.70;99.90;;;;;;6027044;23;20032;-83
2022/09/07 00:42:36;;;;;;;4.65;1.90;;;17.60;99.90;;;;;;6069413;23;20021;-84
2022/09/07 00:45:17;;;;;;;3.85;1.98;;;17.60;99.90;;;;;;6081346;23;20466;-83
2022/09/07 00:48:08;;;;;;;4.70;1.60;;;17.60;99.90;;;;;;6104992;23;20314;-84
2022/09/07 00:50:52;;;;;;;2.10;1.23;;;17.60;99.90;;;;;;6079820;23;20010;-84
2022/09/07 00:53:27;;;;;;;2.85;1.80;;;17.50;99.90;;;;;;6089795;23;20007;-84
2022/09/07 00:55:54;;;;;;;2.80;1.17;;;17.60;99.90;;;;;;6055933;23;20007;-84
2022/09/07 00:58:21;;;;;;;2.63;1.65;;;17.50;99.90;;;;;;6129484;23;20005;-83
2022/09/07 01:00:50;;;;;;;3.00;1.42;;;17.50;99.90;;;;;;6103067;23;20006;-85
2022/09/07 01:03:29;;;;;;;2.67;1.67;;;17.50;99.90;;;;;;6080896;23;19998;-84
2022/09/07 01:06:22;;;;;;;3.42;1.60;;;17.50;99.90;;;;;;6080211;23;20006;-84
2022/09/07 01:08:49;;;;;;;3.30;1.50;;;17.50;99.90;;;;;;6080513;23;20025;-84
2022/09/07 01:11:21;;;;;;;3.50;1.15;;;17.50;99.90;;;;;;6104959;23;20011;-85
2022/09/07 01:13:56;;;;;;;2.88;1.33;;;17.50;99.90;;;;;;6104901;23;20014;-84
2022/09/07 01:17:07;;;;;;;3.15;0.95;;;17.50;99.90;;;;;;6057164;23;20345;-84
2022/09/07 01:20:16;;;;;;;2.97;1.20;;;17.50;99.90;;;;;;6083630;23;20015;-82
2022/09/07 01:22:46;;;;;;;3.28;0.90;;;17.50;99.90;;;;;;6059913;23;20006;-84
2022/09/07 01:25:32;;;;;;;2.85;0.90;;;17.50;99.90;;;;;;6055914;23;20002;-84
2022/09/07 01:28:28;;;;;;;2.50;0.98;;;17.50;99.90;;;;;;6082107;23;20007;-85
2022/09/07 01:30:58;;;;;;;1.65;0.80;;;17.40;99.90;;;;;;6079812;23;20006;-84
2022/09/07 01:33:58;;;;;;;3.10;0.75;;;17.40;99.90;;;;;;6129308;23;20002;-84
2022/09/07 01:37:20;;;;;;;1.70;0.60;;;17.40;99.90;;;;;;6104245;23;20006;-84
2022/09/07 01:39:54;;;;;;;3.00;0.70;;;17.40;99.90;;;;;;6085185;23;20013;-84
2022/09/07 01:42:41;;;;;;;1.50;0.90;;;17.40;99.90;;;;;;6058988;23;20019;-83
2022/09/07 01:45:41;;;;;;;2.03;0.80;;;17.40;99.90;;;;;;6080834;23;20006;-84
2022/09/07 01:55:30;;;;;;;1.77;0.60;;;17.30;99.90;;;;;;6081215;23;20032;-83
2022/09/07 01:59:14;;;;;;;1.08;0.50;;;17.20;99.90;;;;;;6067182;23;20006;-83
2022/09/07 02:01:53;;;;;;;1.73;0.50;;;17.20;99.90;;;;;;6025610;23;20495;-83
2022/09/07 02:04:48;;;;;;;;;;;17.20;99.90;;;;;;6083790;23;20370;-83
2022/09/07 02:08:27;;;;;;;1.15;0.70;;;17.10;99.90;;;;;;6054953;23;19912;-84
2022/09/07 02:11:28;;;;;;;0.93;0.52;;;17.10;99.90;;;;;;6025772;23;20057;-83
2022/09/07 02:14:16;;;;;;;2.35;0.50;;;17.20;99.90;;;;;;6098285;23;20022;-83
2022/09/07 02:17:45;;;;;;;0.90;0.50;;;17.20;99.90;;;;;;6063872;23;20011;-83
2022/09/07 02:20:32;;;;;;;2.08;0.50;;;17.20;99.90;;;;;;6088913;23;20006;-83
2022/09/07 02:23:04;;;;;;;1.83;0.70;;;17.20;99.90;;;;;;6084483;23;20002;-83
2022/09/07 02:25:54;;;;;;;1.23;0.70;;;17.20;99.90;;;;;;6080975;23;20007;-84
2022/09/07 02:28:52;;;;;;;1.10;0.60;;;17.20;99.90;;;;;;6083933;23;19998;-84
2022/09/07 02:31:18;;;;;;;2.17;0.68;;;17.20;99.90;;;;;;6086558;23;20006;-82
2022/09/07 02:33:48;;;;;;;1.17;0.77;;;17.10;99.90;;;;;;6077956;23;20466;-83
2022/09/07 02:36:23;;;;;;;1.30;0.60;;;17.10;99.90;;;;;;6118207;23;20379;-82
2022/09/07 02:38:51;;;;;;;1.00;0.50;;;17.10;99.90;;;;;;6071100;23;20026;-82
2022/09/07 02:41:40;;;;;;;1.15;0.60;;;17.10;99.90;;;;;;6075043;23;20011;-83
2022/09/07 02:44:18;;;;;;;1.70;0.65;;;17.20;99.90;;;;;;6113257;23;20017;-83
2022/09/07 02:47:03;;;;;;;1.40;0.60;;;17.20;99.90;;;;;;6087447;23;20020;-81
2022/09/07 02:49:48;;;;;;;1.50;0.63;;;17.20;99.90;;;;;;6079022;23;20017;-83
2022/09/07 02:52:45;;;;;;;1.65;0.60;;;17.20;99.90;;;;;;6106611;23;20013;-83
2022/09/07 02:55:53;;;;;;;3.85;0.60;;;17.20;99.90;;;;;;6101158;23;20478;-82
2022/09/07 02:58:40;;;;;;;1.42;0.50;;;17.30;99.90;;;;;;6080608;23;20010;-83
2022/09/07 03:01:18;;;;;;;1.88;0.70;;;17.30;99.90;;;;;;6081315;23;20029;-82
2022/09/07 03:04:22;;;;;;;1.35;0.70;;;17.30;99.90;;;;;;6104763;23;20010;-83
2022/09/07 03:07:05;;;;;;;1.95;0.70;;;17.30;99.90;;;;;;6079586;23;20014;-82
2022/09/07 03:09:37;;;;;;;;;;;17.20;99.90;;;;;;6102906;23;20032;-82
2022/09/07 03:12:07;;;;;;;1.05;0.60;;;17.20;99.90;;;;;;6107951;23;19928;-81
2022/09/07 03:14:42;;;;;;;1.75;0.80;;;17.20;99.90;;;;;;6088463;23;20024;-83
2022/09/07 03:17:12;;;;;;;;;;;17.30;99.90;;;;;;6089977;23;20014;-82
2022/09/07 03:19:46;;;;;;;2.05;0.60;;;17.30;99.90;;;;;;6134471;23;19905;-82
2022/09/07 03:22:15;;;;;;;1.75;0.80;;;17.30;99.90;;;;;;6104661;23;19999;-82
2022/09/07 03:24:42;;;;;;;1.90;0.80;;;17.30;99.90;;;;;;6103892;23;20013;-83
2022/09/07 03:27:11;;;;;;;1.38;0.68;;;17.40;99.90;;;;;;6129240;23;20006;-84
2022/09/07 03:29:40;;;;;;;3.47;0.77;;;17.30;99.90;;;;;;6080043;23;20016;-83
2022/09/07 03:32:06;;;;;;;2.42;0.73;;;17.40;99.90;;;;;;6057232;23;20033;-83
2022/09/07 03:34:36;;;;;;;1.98;0.85;;;17.40;99.90;;;;;;6080567;23;20018;-83
2022/09/07 03:37:05;;;;;;;1.88;0.70;;;17.40;99.90;;;;;;6080562;23;20057;-83
2022/09/07 03:39:37;;;;;;;2.28;0.85;;;17.40;99.90;;;;;;6055834;23;20006;-83
2022/09/07 03:42:10;;;;;;;1.85;0.73;;;17.40;99.90;;;;;;6079794;23;20006;-84
2022/09/07 03:44:41;;;;;;;2.33;0.90;;;17.40;99.90;;;;;;6081817;23;20010;-83
2022/09/07 03:47:10;;;;;;;2.75;0.77;;;17.40;99.90;;;;;;6082096;23;20006;-82
2022/09/07 03:49:43;;;;;;;2.28;0.80;;;17.50;99.90;;;;;;6056674;23;20017;-82
2022/09/07 03:52:09;;;;;;;3.17;1.00;;;17.50;99.90;;;;;;6080140;23;20010;-83
2022/09/07 03:54:38;;;;;;;1.48;0.70;;;17.50;99.90;;;;;;6080325;23;20002;-82
2022/09/07 03:57:15;;;;;;;1.80;0.80;;;17.50;99.90;;;;;;6080346;23;20015;-82
2022/09/07 03:59:44;;;;;;;2.47;0.88;;;17.60;99.90;;;;;;6104627;23;20332;-81
2022/09/07 04:02:11;;;;;;;1.05;0.60;;;17.50;99.90;;;;;;6080637;23;20002;-83
2022/09/07 04:04:38;;;;;;;3.15;0.70;;;17.60;99.90;;;;;;6078345;23;20012;-82
2022/09/07 04:07:08;;;;;;;1.98;0.63;;;17.60;99.90;;;;;;6056639;23;20006;-82
2022/09/07 04:09:38;;;;;;;2.38;0.80;;;17.60;99.90;;;;;;6105363;23;20017;-83
2022/09/07 04:12:07;;;;;;;1.73;0.70;;;17.70;99.90;;;;;;6080373;23;20010;-82
2022/09/07 04:14:37;;;;;;;1.80;0.70;;;17.70;99.90;;;;;;6080852;23;20181;-81
2022/09/07 04:17:03;;;;;;;1.40;0.63;;;17.70;99.90;;;;;;6080648;23;20016;-83
2022/09/07 04:19:33;;;;;;;6.70;0.80;;;17.80;99.90;;;;;;6056091;23;20006;-83
2022/09/07 04:22:02;;;;;;;1.92;0.93;;;17.80;99.90;;;;;;6080136;23;20008;-83
2022/09/07 04:24:31;;;;;;;3.03;0.88;;;17.70;99.90;;;;;;6056092;23;20342;-83
2022/09/07 04:27:00;;;;;;;1.42;0.70;;;17.80;99.90;;;;;;6079708;23;20013;-82
2022/09/07 04:29:27;;;;;;;2.60;1.00;;;17.80;99.90;;;;;;6103188;23;20017;-82
2022/09/07 04:31:53;;;;;;;2.40;0.80;;;17.80;99.90;;;;;;6104522;23;20010;-80
2022/09/07 04:34:20;;;;;;;1.92;0.80;;;17.80;99.90;;;;;;6056903;23;20090;-83
2022/09/07 04:36:46;;;;;;;1.48;0.95;;;17.80;99.90;;;;;;6095055;23;20006;-83
2022/09/07 04:39:12;;;;;;;2.95;1.38;;;17.80;99.90;;;;;;6070630;23;20017;-82
2022/09/07 04:41:38;;;;;;;2.28;0.90;;;17.80;99.90;;;;;;6071448;23;20002;-83
2022/09/07 04:44:06;;;;;;;3.05;1.38;;;17.80;99.90;;;;;;6077409;23;20007;-82
2022/09/07 04:47:25;;;;;;;;;;;;;;;;;;;;;
2022/09/07 04:51:35;;;;;;;2.35;1.23;;;17.90;99.90;;;;;;6094942;23;20006;-81
2022/09/07 05:11:37;;;;;;;6.00;2.95;;;17.80;99.90;;;;;;6062896;23;20022;-80
2022/09/07 05:27:28;;;;;;;6.93;5.80;;;17.50;99.90;;;;;;6045564;23;20501;-80
2022/09/07 05:31:23;;;;;;;6.10;5.03;;;17.40;99.90;;;;;;6036371;23;20362;-79
2022/09/07 05:39:21;;;;;;;;;;;;;;;;;;;;;
2022/09/07 05:46:26;;;;;;;;;;;;;;;;;;;;;
2022/09/07 05:55:46;;;;;;;7.85;7.05;;;17.90;99.90;;;;;;6034712;23;20022;-80
2022/09/07 06:22:23;;;;;;;10.30;9.25;;;18.20;99.90;;;;;;6056573;23;20010;-80
2022/09/07 06:30:34;;;;;;;11.90;10.80;;;18.30;99.90;;;;;;6026637;23;20022;-79
2022/09/07 06:38:48;;;;;;;10.05;8.77;;;18.50;99.90;;;;;;5966859;24;20027;-80
2022/09/07 06:42:19;;;;;;;12.53;11.33;;;18.50;99.90;;;;;;5958097;24;20019;-80
2022/09/07 06:45:48;;;;;;;13.23;11.93;;;18.50;99.90;;;;;;5986481;23;20244;-79
2022/09/07 06:49:44;;;;;;;10.75;9.75;;;18.50;99.90;;;;;;5902613;24;20019;-79
2022/09/07 06:53:04;;;;;;;11.10;9.98;;;18.40;99.90;;;;;;5928427;24;20374;-78
2022/09/07 06:55:47;;;;;;;15.15;13.43;;;18.30;99.90;;;;;;5905422;24;20040;-79
2022/09/07 06:59:22;;;;;;;8.75;7.95;;;18.50;99.90;;;;;;5921513;24;20722;-78
2022/09/07 07:06:42;;;;;;;12.57;11.35;;;18.50;99.90;;;;;;5967137;23;20010;-79
2022/09/07 07:14:57;;;;;;;13.75;12.45;;;18.40;99.90;;;;;;5967079;23;20016;-78
2022/09/07 07:30:39;;;;;;;13.35;11.95;;;18.90;99.90;;;;;;6013290;23;20112;-80
2022/09/07 08:23:09;;;;;;;;;;;;;;;;;;;;;
2022/09/07 08:38:45;;;;;;;14.40;12.95;;;20.90;99.90;;;;;;6068503;23;20019;-80
2022/09/07 09:12:57;;;;;;;;;;;;;;;;;;;;;
2022/09/07 09:29:10;;;;;;;11.00;9.90;;;22.50;99.90;;;;;;5976882;23;20073;-79
2022/09/07 09:37:03;;;;;;;13.40;12.20;;;22.70;99.90;;;;;;5904073;24;20103;-82
2022/09/07 09:40:04;;;;;;;13.03;11.83;;;22.70;99.90;;;;;;5931268;24;20106;-83
2022/09/07 09:44:10;;;;;;;10.63;9.43;;;23.00;99.90;;;;;;5924158;24;20250;-83
2022/09/07 10:03:11;;;;;;;9.75;8.75;;;24.00;99.90;;;;;;6044769;23;20003;-84
2022/09/07 10:14:15;;;;;;;8.85;7.97;;;24.40;99.90;;;;;;6072610;23;20324;-84
2022/09/07 10:20:41;;;;;;;6.05;5.55;;;24.80;99.90;;;;;;6048818;23;20002;-84
2022/09/07 10:23:40;;;;;;;6.53;5.93;;;25.00;99.90;;;;;;6021969;23;20012;-84
2022/09/07 10:30:11;;;;;;;5.35;4.95;;;25.50;99.90;;;;;;6035401;23;20010;-84
2022/09/07 10:33:46;;;;;;;7.55;6.38;;;25.80;99.90;;;;;;6016210;23;20446;-84
2022/09/07 10:37:38;;;;;;;6.38;5.78;;;26.20;99.90;;;;;;6052772;23;20034;-83
2022/09/07 10:41:27;;;;;;;5.18;4.55;;;26.60;99.90;;;;;;6008475;23;20015;-83
2022/09/07 10:45:06;;;;;;;7.70;5.95;;;27.10;99.90;;;;;;6017021;23;20371;-83
2022/09/07 10:48:05;;;;;;;6.25;5.60;;;27.40;99.90;;;;;;6020159;23;20027;-83
2022/09/07 10:54:53;;;;;;;;;;;;;;;;;;;;;
2022/09/07 11:05:57;;;;;;;4.07;2.33;;;28.20;99.00;;;;;;6113377;23;20024;-85
2022/09/07 11:17:08;;;;;;;3.47;2.67;;;28.70;96.20;;;;;;6054269;23;20012;-84
2022/09/07 11:21:43;;;;;;;2.35;1.83;;;29.00;95.60;;;;;;6098487;23;20021;-84
2022/09/07 11:28:44;;;;;;;;;;;29.60;93.80;;;;;;5979956;23;20008;-84
2022/09/07 11:31:44;;;;;;;2.63;1.85;;;29.00;94.10;;;;;;6003751;23;19912;-83
2022/09/07 11:35:24;;;;;;;2.40;1.97;;;29.00;93.30;;;;;;5980869;23;20012;-85
2022/09/07 11:43:13;;;;;;;;;;;;;;;;;;;;;
2022/09/07 11:46:59;;;;;;;2.33;1.17;;;30.10;91.10;;;;;;6101151;23;20010;-85
2022/09/07 12:06:27;;;;;;;2.35;1.08;;;33.60;80.90;;;;;;6004772;23;20023;-84
2022/09/07 12:13:49;;;;;;;3.00;0.90;;;34.00;75.90;;;;;;6091613;23;20026;-83
2022/09/07 12:17:46;;;;;;;;;;;;;;;;;;;;;
2022/09/07 12:34:41;;;;;;;;;;;;;;;;;;;;;
2022/09/07 12:39:05;;;;;;;;;;;;;;;;;;;;;
2022/09/07 13:02:49;;;;;;;3.63;0.80;;;33.40;65.20;;;;;;6020744;23;20024;-86
2022/09/07 13:24:32;;;;;;;2.53;0.50;;;35.20;59.90;;;;;;5804271;24;20015;-84
2022/09/07 13:36:26;;;;;;;2.88;0.45;;;36.40;55.00;;;;;;5829924;24;20455;-83
2022/09/07 14:07:24;;;;;;;2.88;0.60;;;34.90;54.50;;;;;;6065162;23;20029;-80
2022/09/07 14:14:14;;;;;;;2.97;0.60;;;32.50;56.90;;;;;;6024812;23;20012;-81
2022/09/07 14:16:56;;;;;;;3.45;0.60;;;31.60;59.00;;;;;;6027424;23;20015;-82
2022/09/07 14:19:46;;;;;;;2.65;0.60;;;31.10;60.00;;;;;;6108458;23;20010;-80
2022/09/07 14:22:50;;;;;;;21.13;14.20;;;30.60;60.40;;;;;;6060942;23;20010;-81
2022/09/07 14:25:39;;;;;;;7.53;5.75;;;30.00;61.70;;;;;;6060295;23;20016;-81
2022/09/07 14:29:23;;;;;;;2.50;1.25;;;29.60;62.90;;;;;;6104699;23;20017;-80
2022/09/07 14:31:59;;;;;;;4.55;1.55;;;29.20;64.80;;;;;;6036747;23;20017;-82
2022/09/07 14:34:46;;;;;;;3.85;1.55;;;29.00;65.40;;;;;;6063398;23;20026;-84
2022/09/07 14:37:42;;;;;;;3.60;1.23;;;28.80;65.10;;;;;;6087548;23;20011;-82
2022/09/07 14:40:28;;;;;;;2.60;1.02;;;28.70;65.70;;;;;;6079670;23;20017;-80
2022/09/07 14:43:45;;;;;;;2.92;1.02;;;28.50;66.10;;;;;;6065078;23;20003;-81
2022/09/07 14:46:17;;;;;;;1.95;0.50;;;28.50;65.40;;;;;;6026531;23;20007;-83
2022/09/07 14:48:54;;;;;;;3.10;0.60;;;28.40;65.40;;;;;;6107243;23;20006;-80
2022/09/07 14:51:34;;;;;;;3.78;0.73;;;28.40;65.70;;;;;;6061229;23;20006;-80
2022/09/07 14:54:30;;;;;;;2.38;0.50;;;28.30;65.80;;;;;;6062669;23;20006;-81
2022/09/07 14:57:29;;;;;;;2.78;0.50;;;28.20;65.70;;;;;;6080080;23;20018;-80
2022/09/07 15:00:31;;;;;;;2.75;0.57;;;28.10;66.10;;;;;;6000530;23;20467;-80
2022/09/07 15:03:31;;;;;;;2.13;0.40;;;28.00;66.30;;;;;;6056514;23;20017;-81
2022/09/07 15:06:06;;;;;;;1.92;0.40;;;27.90;67.00;;;;;;6081330;23;20010;-83
2022/09/07 15:09:10;;;;;;;2.00;0.50;;;27.80;67.30;;;;;;6057923;23;20011;-80
2022/09/07 15:12:04;;;;;;;2.13;0.40;;;27.80;67.20;;;;;;6033853;23;20011;-81
2022/09/07 15:14:35;;;;;;;2.58;0.50;;;27.80;67.40;;;;;;6011505;23;20015;-83
2022/09/07 15:17:33;;;;;;;3.33;0.60;;;27.70;67.40;;;;;;6069505;23;20017;-80
2022/09/07 15:20:50;;;;;;;3.15;0.45;;;27.60;66.60;;;;;;6056260;23;20007;-81
2022/09/07 15:24:05;;;;;;;1.55;0.40;;;27.60;67.30;;;;;;6054769;23;20011;-80
2022/09/07 15:27:26;;;;;;;2.95;0.55;;;27.60;67.80;;;;;;5995137;23;20003;-82
2022/09/07 15:30:32;;;;;;;3.03;0.60;;;27.70;67.60;;;;;;6057652;23;20033;-83
2022/09/07 15:34:12;;;;;;;1.23;0.43;;;27.60;67.30;;;;;;6067493;23;20011;-83
2022/09/07 15:44:15;;;;;;;;;;;;;;;;;;;;;
2022/09/07 15:48:01;;;;;;;1.70;0.30;;;27.50;67.80;;;;;;6060652;23;20013;-82
2022/09/07 15:59:11;;;;;;;1.70;0.40;;;27.30;67.60;;;;;;6051463;23;20017;-81
2022/09/07 16:02:16;;;;;;;1.30;0.40;;;27.20;68.00;;;;;;6079069;23;20018;-82
2022/09/07 16:05:05;;;;;;;1.67;0.40;;;27.10;67.70;;;;;;6112758;23;20010;-80
2022/09/07 16:12:26;;;;;;;2.90;1.13;;;27.00;67.90;;;;;;6050689;23;19996;-82
2022/09/07 16:16:05;;;;;;;3.53;1.58;;;26.90;67.80;;;;;;5918559;24;20024;-82
2022/09/07 16:18:35;;;;;;;2.45;0.98;;;26.70;67.70;;;;;;6052801;23;20015;-83
2022/09/07 16:21:15;;;;;;;1.55;0.60;;;26.60;67.70;;;;;;6055217;23;20014;-82
2022/09/07 16:23:46;;;;;;;1.50;0.30;;;26.50;67.80;;;;;;6051991;23;20003;-83
2022/09/07 16:26:20;;;;;;;3.22;0.40;;;26.40;68.00;;;;;;6051759;23;20017;-82
2022/09/07 16:28:55;;;;;;;1.42;0.40;;;26.20;67.50;;;;;;6050223;23;20021;-82
2022/09/07 16:31:25;;;;;;;0.93;0.32;;;26.10;67.60;;;;;;6049425;23;20013;-81
2022/09/07 16:34:00;;;;;;;1.60;0.40;;;26.00;68.10;;;;;;6075621;23;20016;-81
2022/09/07 16:36:47;;;;;;;1.50;0.43;;;25.90;68.40;;;;;;6053108;23;20017;-82
2022/09/07 16:39:31;;;;;;;1.40;0.50;;;25.80;68.40;;;;;;6075706;23;20453;-83
2022/09/07 16:42:12;;;;;;;1.65;0.75;;;25.60;68.20;;;;;;6098089;23;20022;-81
2022/09/07 16:44:51;;;;;;;2.20;1.05;;;25.50;68.60;;;;;;6049901;23;20007;-82
2022/09/07 16:47:50;;;;;;;4.65;1.50;;;25.40;69.30;;;;;;6074994;23;20013;-83
2022/09/07 16:50:49;;;;;;;3.28;0.95;;;25.30;69.90;;;;;;6021390;23;20382;-82
2022/09/07 16:53:37;;;;;;;2.70;0.70;;;25.30;70.30;;;;;;6072765;23;20022;-81
2022/09/07 16:56:36;;;;;;;1.65;0.50;;;25.20;70.50;;;;;;6048572;23;20013;-82
2022/09/07 17:05:12;;;;;;;2.00;0.40;;;25.00;70.60;;;;;;6071665;23;20002;-81
2022/09/07 17:08:22;;;;;;;;;;;;;;;;;;;;;
2022/09/07 17:11:28;;;;;;;1.83;0.80;;;24.80;70.70;;;;;;6053750;23;20446;-82
2022/09/07 17:14:27;;;;;;;2.97;1.20;;;24.70;70.90;;;;;;6056255;23;20010;-82
2022/09/07 17:17:31;;;;;;;3.05;0.90;;;24.70;71.20;;;;;;6069154;23;20335;-83
2022/09/07 17:20:51;;;;;;;;;;;;;;;;;;;;;
2022/09/07 17:24:15;;;;;;;3.28;0.50;;;24.50;71.90;;;;;;6114459;23;20021;-84
2022/09/07 17:26:52;;;;;;;1.55;0.50;;;24.30;72.40;;;;;;6081853;23;20012;-84
2022/09/07 17:29:33;;;;;;;1.77;0.40;;;24.20;72.70;;;;;;6033224;23;20013;-84
2022/09/07 17:32:42;;;;;;;1.10;0.50;;;24.10;73.20;;;;;;6102532;23;20032;-83
2022/09/07 17:35:12;;;;;;;1.60;0.52;;;24.00;73.60;;;;;;6080345;23;20016;-83
2022/09/07 17:37:51;;;;;;;2.35;0.60;;;23.80;73.70;;;;;;6027886;23;20013;-82
2022/09/07 17:40:46;;;;;;;1.50;0.50;;;23.70;74.10;;;;;;6055005;23;20010;-83
2022/09/07 17:43:36;;;;;;;1.17;0.50;;;23.60;74.30;;;;;;6028283;23;20006;-82
2022/09/07 17:46:11;;;;;;;2.95;0.60;;;23.50;74.50;;;;;;6076163;23;21313;-83
2022/09/07 17:49:23;;;;;;;4.55;2.63;;;23.50;74.80;;;;;;6062164;23;20018;-84
2022/09/07 17:52:14;;;;;;;5.22;4.13;;;23.40;75.10;;;;;;6055059;23;20341;-84
2022/09/07 17:55:25;;;;;;;5.85;4.15;;;23.30;75.50;;;;;;6062487;23;20002;-84
2022/09/07 18:01:26;;;;;;;9.27;7.30;;;23.20;76.10;;;;;;6051894;23;20021;-84
2022/09/07 18:04:34;;;;;;;10.07;8.35;;;23.10;76.50;;;;;;6045897;23;20003;-83
2022/09/07 18:07:47;;;;;;;11.23;8.45;;;23.10;77.00;;;;;;6033022;23;20006;-83
2022/09/07 18:10:36;;;;;;;10.50;8.32;;;22.90;77.30;;;;;;6050946;23;20344;-84
2022/09/07 18:13:30;;;;;;;9.05;7.63;;;22.80;77.90;;;;;;6032092;23;20014;-83
2022/09/07 18:16:54;;;;;;;8.15;5.68;;;22.70;78.20;;;;;;6101177;23;20006;-83
2022/09/07 18:20:01;;;;;;;3.33;2.38;;;22.60;78.80;;;;;;6082134;23;20017;-83
2022/09/07 18:22:56;;;;;;;3.83;1.48;;;22.50;78.90;;;;;;6054138;23;20461;-83
2022/09/07 18:25:30;;;;;;;3.30;0.90;;;22.40;79.10;;;;;;6057535;23;20017;-84
2022/09/07 18:28:40;;;;;;;1.33;0.68;;;22.30;79.80;;;;;;6074781;23;20017;-84
2022/09/07 18:31:15;;;;;;;1.90;0.50;;;22.30;80.30;;;;;;6063074;23;20018;-84
2022/09/07 18:33:45;;;;;;;1.15;0.50;;;22.20;80.50;;;;;;6091589;23;20017;-83
2022/09/07 18:36:18;;;;;;;1.42;0.60;;;22.10;80.50;;;;;;6043908;23;20358;-84
2022/09/07 18:39:36;;;;;;;1.98;0.80;;;22.10;81.10;;;;;;6091475;23;20437;-85
2022/09/07 18:42:37;;;;;;;3.45;0.60;;;22.00;81.40;;;;;;6053813;23;20021;-84
2022/09/07 18:46:19;;;;;;;2.17;1.20;;;22.00;81.60;;;;;;6043556;23;20007;-84
2022/09/07 18:49:01;;;;;;;4.65;2.30;;;21.90;82.00;;;;;;5917845;24;20015;-84
2022/09/07 18:52:37;;;;;;;3.65;2.03;;;21.80;82.60;;;;;;6031435;23;20120;-83
2022/09/07 18:55:28;;;;;;;3.88;2.47;;;21.70;83.30;;;;;;6088564;23;20011;-83
2022/09/07 18:58:12;;;;;;;2.45;1.90;;;21.60;84.60;;;;;;6053568;23;20346;-83
2022/09/07 19:01:24;;;;;;;3.15;1.60;;;21.50;84.40;;;;;;6057390;23;20011;-83
2022/09/07 19:04:12;;;;;;;2.50;1.30;;;21.50;84.90;;;;;;6076296;23;20003;-83
2022/09/07 19:06:54;;;;;;;2.75;1.20;;;21.40;85.60;;;;;;6048788;23;20007;-84
2022/09/07 19:10:38;;;;;;;2.70;1.13;;;21.30;86.00;;;;;;6093211;23;20029;-83
2022/09/07 19:14:04;;;;;;;;;;;;;;;;;;;;;
2022/09/07 19:21:43;;;;;;;3.65;1.13;;;20.90;88.10;;;;;;6076208;23;20017;-82
2022/09/07 19:25:12;;;;;;;;;;;;;;;;;;;;;
2022/09/07 19:29:20;;;;;;;4.07;1.35;;;20.70;89.30;;;;;;6096001;23;20024;-83
2022/09/07 19:40:15;;;;;;;3.17;0.90;;;20.50;90.30;;;;;;5981527;23;20020;-83
2022/09/07 19:43:33;;;;;;;2.85;0.85;;;20.40;90.40;;;;;;5982618;23;20029;-83
2022/09/07 20:00:53;;;;;;;2.00;0.60;;;20.30;90.40;;;;;;6079634;23;20021;-83
2022/09/07 20:05:29;;;;;;;;;;;;;;;;;;;;;
2022/09/07 20:09:57;;;;;;;1.52;0.60;;;20.30;90.50;;;;;;5959636;24;20027;-82
2022/09/07 20:13:38;;;;;;;1.38;0.57;;;20.30;90.60;;;;;;5965538;24;20365;-82
2022/09/07 20:16:24;;;;;;;2.35;0.80;;;20.30;90.60;;;;;;5970259;23;20012;-82
2022/09/07 20:19:30;;;;;;;2.53;0.70;;;20.30;90.90;;;;;;5969389;24;20448;-82
2022/09/07 20:26:40;;;;;;;2.35;0.88;;;20.30;90.70;;;;;;6098231;23;20026;-83
2022/09/07 20:29:50;;;;;;;2.85;1.15;;;20.30;90.80;;;;;;6034378;23;20014;-82
2022/09/07 20:32:49;;;;;;;20.90;14.75;;;20.20;91.00;;;;;;6050212;23;20010;-82
2022/09/07 20:36:11;;;;;;;9.32;6.45;;;20.10;91.10;;;;;;6042164;23;20014;-83
2022/09/07 20:39:35;;;;;;;5.45;2.88;;;20.10;91.20;;;;;;6055653;23;20011;-82
2022/09/07 20:42:57;;;;;;;27.95;17.85;;;20.00;91.40;;;;;;6094920;23;20021;-82
2022/09/07 20:52:07;;;;;;;11.65;6.63;;;19.80;91.90;;;;;;6114112;23;20021;-84
2022/09/07 20:55:15;;;;;;;5.70;3.85;;;19.80;92.20;;;;;;6085090;23;20008;-83
2022/09/07 20:57:59;;;;;;;8.88;4.63;;;19.70;92.30;;;;;;6078665;23;20003;-82
2022/09/07 21:00:46;;;;;;;13.55;10.23;;;19.60;92.30;;;;;;6100246;23;20018;-82
2022/09/07 21:03:51;;;;;;;12.63;6.35;;;19.60;92.40;;;;;;6078799;23;20338;-82
2022/09/07 21:35:56;;;;;;;8.23;5.43;;;19.50;93.70;;;;;;5791273;24;20038;-82
2022/09/07 21:39:06;;;;;;;6.47;3.78;;;19.50;93.80;;;;;;5849076;24;20013;-82
2022/09/07 22:16:11;;;;;;;4.63;1.67;;;19.40;94.70;;;;;;6013539;23;20023;-83
2022/09/07 22:26:47;;;;;;;4.07;3.22;;;19.40;95.20;;;;;;6110860;23;20041;-82
2022/09/07 22:29:21;;;;;;;6.28;4.32;;;19.40;95.10;;;;;;6134101;23;20010;-79
2022/09/07 22:31:47;;;;;;;5.88;3.50;;;19.40;95.20;;;;;;6102307;23;20020;-78
2022/09/07 22:34:13;;;;;;;8.27;3.35;;;19.40;95.30;;;;;;6077495;23;20013;-79
2022/09/07 22:36:43;;;;;;;2.88;1.55;;;19.50;95.40;;;;;;6120086;23;20007;-78
2022/09/07 22:39:13;;;;;;;3.10;1.30;;;19.50;95.50;;;;;;6150105;23;20010;-79
2022/09/07 22:41:40;;;;;;;3.67;0.80;;;19.50;95.60;;;;;;6126925;23;20017;-79
2022/09/07 22:44:10;;;;;;;3.10;1.38;;;19.60;95.60;;;;;;6128325;23;20006;-79
2022/09/07 22:46:39;;;;;;;5.93;3.60;;;19.60;95.70;;;;;;6102081;23;20005;-79
2022/09/07 22:49:06;;;;;;;3.60;2.50;;;19.60;95.70;;;;;;6105323;23;20021;-79
2022/09/07 22:51:35;;;;;;;2.80;1.63;;;19.60;95.80;;;;;;6088312;23;20003;-80
2022/09/07 22:54:02;;;;;;;4.28;1.42;;;19.60;95.90;;;;;;6111011;23;20296;-80
2022/09/07 22:56:31;;;;;;;4.53;2.08;;;19.60;96.00;;;;;;6085411;23;20011;-80
2022/09/07 22:59:02;;;;;;;4.18;2.28;;;19.60;96.10;;;;;;6130366;23;20025;-79
2022/09/07 23:01:32;;;;;;;5.30;3.42;;;19.60;96.20;;;;;;6112758;23;20016;-80
2022/09/07 23:03:59;;;;;;;4.25;2.70;;;19.60;96.20;;;;;;6101536;23;20013;-79
2022/09/07 23:06:31;;;;;;;4.97;2.15;;;19.50;96.20;;;;;;6102491;23;20371;-79
2022/09/07 23:09:00;;;;;;;2.95;1.48;;;19.60;96.40;;;;;;6103500;23;20010;-79
2022/09/07 23:11:27;;;;;;;3.60;1.02;;;19.60;96.40;;;;;;6128386;23;20002;-78
2022/09/07 23:13:56;;;;;;;2.63;1.15;;;19.50;96.30;;;;;;6102629;23;20063;-79
2022/09/07 23:16:23;;;;;;;3.38;0.70;;;19.60;96.40;;;;;;6103656;23;20009;-79
2022/09/07 23:18:49;;;;;;;2.03;0.70;;;19.60;96.50;;;;;;6126924;23;20034;-78
2022/09/07 23:21:16;;;;;;;2.45;0.70;;;19.50;96.60;;;;;;6104221;23;20013;-78
2022/09/07 23:23:42;;;;;;;2.10;0.50;;;19.50;96.60;;;;;;6101675;23;20006;-79
2022/09/07 23:26:08;;;;;;;3.42;0.50;;;19.50;96.60;;;;;;6102248;23;20013;-79
2022/09/07 23:28:35;;;;;;;1.63;0.57;;;19.60;96.70;;;;;;6104024;23;20009;-78
2022/09/07 23:31:01;;;;;;;1.98;0.60;;;19.60;96.80;;;;;;6102736;23;20010;-78
2022/09/07 23:33:29;;;;;;;3.42;0.73;;;19.50;96.80;;;;;;6103550;23;20015;-79
2022/09/07 23:36:01;;;;;;;1.35;0.50;;;19.50;96.90;;;;;;6104005;23;20355;-80
2022/09/07 23:38:27;;;;;;;;;;;19.60;96.90;;;;;;6125519;23;20012;-79
2022/09/07 23:40:55;;;;;;;1.38;0.60;;;19.50;96.90;;;;;;6100571;23;19909;-80
2022/09/07 23:43:23;;;;;;;1.27;0.50;;;19.50;96.90;;;;;;6149454;23;20002;-79
2022/09/07 23:45:50;;;;;;;1.67;0.50;;;19.50;97.00;;;;;;6149810;23;20007;-79
2022/09/07 23:48:16;;;;;;;1.35;0.70;;;19.50;97.00;;;;;;6102164;23;20002;-80
2022/09/07 23:50:43;;;;;;;2.60;0.80;;;19.50;97.00;;;;;;6100587;23;20434;-79
2022/09/07 23:53:10;;;;;;;1.55;0.50;;;19.50;97.10;;;;;;6125300;23;20022;-79
2022/09/07 23:55:37;;;;;;;1.73;0.60;;;19.60;97.10;;;;;;6149550;23;20399;-79
2022/09/07 23:58:03;;;;;;;3.30;0.70;;;19.50;97.20;;;;;;6124545;23;20469;-79
